Time;durP1;ratioP1;P1;durP2;ratioP2;P2;SDS_P1;SDS_P2;PMS_P1;PMS_P2;Temp;Humidity;BMP_temperature;BMP_pressure;BME280_temperature;BME280_humidity;BME280_pressure;Samples;Min_cycle;Max_cycle;Signal;HPM_P1;HPM_P2
2024/01/09 00:02:22;;;;;;;1.95;1.33;;;;;;;;;;5052145;28;20048;-54
2024/01/09 00:04:48;;;;;;;0.73;0.63;;;;;;;;;;5054602;28;20032;-55
2024/01/09 00:07:14;;;;;;;1.25;0.90;;;;;;;;;;5051708;28;20127;-53
2024/01/09 00:09:40;;;;;;;3.00;1.20;;;;;;;;;;5056247;28;20025;-55
2024/01/09 00:12:06;;;;;;;0.65;0.65;;;;;;;;;;5052928;28;20044;-55
2024/01/09 00:14:32;;;;;;;3.92;2.20;;;;;;;;;;5051319;28;20049;-55
2024/01/09 00:16:58;;;;;;;2.85;1.50;;;;;;;;;;5054195;28;20043;-53
2024/01/09 00:19:24;;;;;;;2.53;1.30;;;;;;;;;;5051975;28;20460;-55
2024/01/09 00:21:50;;;;;;;0.45;0.45;;;;;;;;;;5054110;28;20068;-55
2024/01/09 00:24:16;;;;;;;2.28;1.33;;;;;;;;;;5052082;28;20029;-57
2024/01/09 00:26:43;;;;;;;0.85;0.50;;;;;;;;;;5051021;28;20477;-58
2024/01/09 00:29:09;;;;;;;4.72;1.10;;;;;;;;;;5052282;28;20097;-58
2024/01/09 00:31:35;;;;;;;1.08;0.77;;;;;;;;;;5055367;28;20037;-60
2024/01/09 00:34:01;;;;;;;0.22;0.22;;;;;;;;;;5051067;28;20403;-58
2024/01/09 00:36:27;;;;;;;4.75;2.35;;;;;;;;;;5051712;28;20039;-58
2024/01/09 00:38:53;;;;;;;5.85;2.13;;;;;;;;;;5059531;28;20041;-57
2024/01/09 00:41:19;;;;;;;6.32;2.08;;;;;;;;;;5060498;28;20032;-58
2024/01/09 00:43:45;;;;;;;3.90;1.90;;;;;;;;;;5058205;28;20463;-55
2024/01/09 00:46:11;;;;;;;2.15;1.17;;;;;;;;;;5049347;28;20029;-59
2024/01/09 00:48:37;;;;;;;4.22;2.35;;;;;;;;;;5051139;28;20040;-59
2024/01/09 00:51:03;;;;;;;1.10;0.75;;;;;;;;;;5055651;28;20537;-59
2024/01/09 00:53:29;;;;;;;2.92;1.27;;;;;;;;;;5059529;28;20503;-60
2024/01/09 00:55:56;;;;;;;2.92;1.60;;;;;;;;;;5033945;28;20036;-60
2024/01/09 00:58:22;;;;;;;2.50;1.25;;;;;;;;;;5049798;28;20103;-55
2024/01/09 01:00:48;;;;;;;5.35;1.95;;;;;;;;;;5051197;28;20051;-57
2024/01/09 01:03:14;;;;;;;3.40;2.15;;;;;;;;;;5056035;28;20040;-55
2024/01/09 01:05:40;;;;;;;3.13;1.63;;;;;;;;;;5051423;28;20040;-59
2024/01/09 01:08:06;;;;;;;1.23;0.68;;;;;;;;;;5050563;28;20556;-59
2024/01/09 01:10:32;;;;;;;3.50;1.58;;;;;;;;;;5054799;28;20041;-57
2024/01/09 01:12:58;;;;;;;1.52;1.10;;;;;;;;;;5051992;28;20041;-56
2024/01/09 01:15:25;;;;;;;1.27;1.10;;;;;;;;;;5048273;28;20040;-58
2024/01/09 01:17:51;;;;;;;4.32;1.75;;;;;;;;;;5051738;28;20510;-59
2024/01/09 01:20:17;;;;;;;3.83;1.58;;;;;;;;;;5047968;28;20033;-57
2024/01/09 01:22:43;;;;;;;3.15;1.75;;;;;;;;;;5053648;28;20106;-57
2024/01/09 01:25:09;;;;;;;3.17;1.58;;;;;;;;;;5049232;28;20460;-57
2024/01/09 01:27:35;;;;;;;2.63;1.35;;;;;;;;;;5049243;28;20448;-57
2024/01/09 01:30:01;;;;;;;3.45;1.33;;;;;;;;;;5049004;28;20032;-57
2024/01/09 01:32:27;;;;;;;1.00;0.52;;;;;;;;;;5053892;28;20044;-55
2024/01/09 01:34:53;;;;;;;3.72;0.68;;;;;;;;;;5054770;28;20080;-54
2024/01/09 01:37:19;;;;;;;0.20;0.20;;;;;;;;;;5054683;28;20062;-55
2024/01/09 01:39:45;;;;;;;3.83;1.98;;;;;;;;;;5054165;28;20029;-55
2024/01/09 01:42:11;;;;;;;0.63;0.38;;;;;;;;;;5032900;28;20430;-56
2024/01/09 01:44:37;;;;;;;2.80;1.38;;;;;;;;;;5050634;28;20047;-53
2024/01/09 01:47:04;;;;;;;0.30;0.25;;;;;;;;;;5052015;28;20098;-52
2024/01/09 01:49:30;;;;;;;4.32;2.30;;;;;;;;;;5048103;28;20407;-52
2024/01/09 01:51:56;;;;;;;3.85;1.70;;;;;;;;;;5053200;28;20040;-54
2024/01/09 01:54:23;;;;;;;4.65;2.15;;;;;;;;;;5055805;28;20415;-55
2024/01/09 01:56:49;;;;;;;1.42;1.05;;;;;;;;;;5055749;28;20036;-55
2024/01/09 01:59:16;;;;;;;3.28;1.27;;;;;;;;;;5052445;28;20037;-55
2024/01/09 02:01:43;;;;;;;4.65;2.40;;;;;;;;;;5050710;28;20043;-53
2024/01/09 02:04:10;;;;;;;3.58;1.77;;;;;;;;;;5050017;28;20028;-53
2024/01/09 02:06:36;;;;;;;1.08;0.65;;;;;;;;;;5051767;28;20108;-54
2024/01/09 02:09:02;;;;;;;4.30;1.60;;;;;;;;;;5049652;28;20029;-55
2024/01/09 02:11:29;;;;;;;1.08;0.25;;;;;;;;;;5033323;28;20464;-55
2024/01/09 02:13:54;;;;;;;8.02;1.83;;;;;;;;;;5049591;28;20036;-55
2024/01/09 02:16:21;;;;;;;3.58;1.95;;;;;;;;;;5046965;28;20037;-55
2024/01/09 02:18:46;;;;;;;2.83;1.48;;;;;;;;;;5053241;28;20037;-53
2024/01/09 02:21:12;;;;;;;0.35;0.32;;;;;;;;;;5032256;28;20408;-55
2024/01/09 02:23:39;;;;;;;0.43;0.43;;;;;;;;;;5051297;28;20120;-55
2024/01/09 02:26:06;;;;;;;0.00;0.00;;;;;;;;;;5050332;28;21812;-55
2024/01/09 02:28:34;;;;;;;2.85;1.80;;;;;;;;;;5034924;28;20090;-55
2024/01/09 02:31:00;;;;;;;1.95;0.95;;;;;;;;;;5049286;28;20036;-51
2024/01/09 02:33:28;;;;;;;2.38;1.17;;;;;;;;;;5050245;28;20044;-54
2024/01/09 02:35:54;;;;;;;1.83;1.23;;;;;;;;;;5051729;28;20476;-54
2024/01/09 02:38:21;;;;;;;0.85;0.55;;;;;;;;;;5056483;28;20040;-54
2024/01/09 02:40:47;;;;;;;1.38;0.95;;;;;;;;;;5050580;28;20482;-54
2024/01/09 02:43:13;;;;;;;4.15;1.80;;;;;;;;;;5049287;28;20037;-58
2024/01/09 02:45:39;;;;;;;1.35;0.80;;;;;;;;;;5049262;28;20487;-56
2024/01/09 02:48:05;;;;;;;4.45;2.00;;;;;;;;;;5047659;28;20048;-59
2024/01/09 02:50:31;;;;;;;0.10;0.10;;;;;;;;;;5051189;28;20097;-56
2024/01/09 02:52:57;;;;;;;0.17;0.17;;;;;;;;;;5050473;28;20071;-57
2024/01/09 02:55:23;;;;;;;0.10;0.10;;;;;;;;;;5049714;28;20235;-59
2024/01/09 02:57:50;;;;;;;2.10;1.27;;;;;;;;;;5057649;28;20059;-59
2024/01/09 03:00:16;;;;;;;4.78;1.48;;;;;;;;;;5053709;28;20597;-58
2024/01/09 03:02:42;;;;;;;1.25;0.88;;;;;;;;;;5049957;28;20498;-54
2024/01/09 03:05:08;;;;;;;1.15;0.95;;;;;;;;;;5049214;28;20040;-58
2024/01/09 03:07:34;;;;;;;3.42;1.38;;;;;;;;;;5053281;28;20503;-59
2024/01/09 03:10:01;;;;;;;3.05;1.63;;;;;;;;;;5050912;28;20033;-59
2024/01/09 03:12:27;;;;;;;0.82;0.70;;;;;;;;;;5048508;28;20460;-58
2024/01/09 03:14:53;;;;;;;4.18;2.40;;;;;;;;;;5048089;28;20530;-59
2024/01/09 03:17:19;;;;;;;0.32;0.10;;;;;;;;;;5050628;28;20037;-57
2024/01/09 03:19:45;;;;;;;3.20;1.35;;;;;;;;;;5050671;28;20056;-58
2024/01/09 03:22:11;;;;;;;0.35;0.35;;;;;;;;;;5047118;28;20056;-59
2024/01/09 03:24:37;;;;;;;2.40;1.35;;;;;;;;;;5048195;28;20040;-55
2024/01/09 03:27:04;;;;;;;1.20;0.80;;;;;;;;;;5047814;28;20547;-58
2024/01/09 03:29:30;;;;;;;0.68;0.68;;;;;;;;;;5046945;28;20417;-59
2024/01/09 03:31:56;;;;;;;1.30;1.00;;;;;;;;;;5049237;28;20183;-59
2024/01/09 03:34:22;;;;;;;3.90;1.70;;;;;;;;;;5047512;28;20044;-57
2024/01/09 03:36:48;;;;;;;0.82;0.82;;;;;;;;;;5053031;28;20033;-58
2024/01/09 03:39:14;;;;;;;2.13;1.35;;;;;;;;;;5051257;28;20028;-59
2024/01/09 03:41:42;;;;;;;0.10;0.10;;;;;;;;;;5049964;28;20524;-58
2024/01/09 03:44:08;;;;;;;2.40;1.35;;;;;;;;;;5048075;28;20137;-57
2024/01/09 03:46:34;;;;;;;4.32;2.33;;;;;;;;;;5052398;28;20499;-57
2024/01/09 03:49:00;;;;;;;0.65;0.50;;;;;;;;;;5051929;28;20127;-58
2024/01/09 03:51:26;;;;;;;0.45;0.35;;;;;;;;;;5032273;28;20117;-57
2024/01/09 03:53:52;;;;;;;1.25;0.65;;;;;;;;;;5049949;28;20040;-59
2024/01/09 03:56:18;;;;;;;4.90;1.85;;;;;;;;;;5052526;28;20072;-59
2024/01/09 03:58:44;;;;;;;3.45;1.83;;;;;;;;;;5050554;28;20127;-59
2024/01/09 04:01:10;;;;;;;3.47;1.77;;;;;;;;;;5056523;28;20094;-59
2024/01/09 04:03:37;;;;;;;0.77;0.75;;;;;;;;;;5050859;28;20048;-58
2024/01/09 04:06:03;;;;;;;3.03;0.75;;;;;;;;;;5049466;28;20044;-57
2024/01/09 04:08:29;;;;;;;0.47;0.47;;;;;;;;;;5051201;28;20047;-59
2024/01/09 04:10:55;;;;;;;0.50;0.50;;;;;;;;;;5051344;28;20040;-57
2024/01/09 04:13:21;;;;;;;1.55;0.93;;;;;;;;;;5045353;28;20413;-59
2024/01/09 04:15:48;;;;;;;1.10;1.08;;;;;;;;;;5049721;28;20484;-59
2024/01/09 04:18:13;;;;;;;2.53;0.95;;;;;;;;;;5047532;28;20051;-57
2024/01/09 04:20:40;;;;;;;2.75;0.93;;;;;;;;;;5051219;28;20456;-58
2024/01/09 04:23:06;;;;;;;4.53;2.13;;;;;;;;;;5048734;28;21528;-59
2024/01/09 04:25:32;;;;;;;2.60;1.27;;;;;;;;;;5030050;28;21809;-58
2024/01/09 04:27:58;;;;;;;0.60;0.60;;;;;;;;;;5046763;28;20041;-59
2024/01/09 04:30:24;;;;;;;0.88;0.57;;;;;;;;;;5049813;28;20044;-59
2024/01/09 04:32:50;;;;;;;1.55;1.25;;;;;;;;;;5056428;28;20033;-60
2024/01/09 04:35:16;;;;;;;3.50;1.85;;;;;;;;;;5059592;28;20099;-63
2024/01/09 04:37:42;;;;;;;1.38;0.95;;;;;;;;;;5061116;28;20046;-59
2024/01/09 04:40:08;;;;;;;0.20;0.20;;;;;;;;;;5061281;28;20132;-64
2024/01/09 04:42:34;;;;;;;1.35;0.68;;;;;;;;;;5063359;28;20032;-67
2024/01/09 04:45:00;;;;;;;0.28;0.28;;;;;;;;;;5062495;28;20025;-59
2024/01/09 04:47:26;;;;;;;1.42;0.70;;;;;;;;;;5062600;28;20500;-64
2024/01/09 04:49:52;;;;;;;2.80;1.45;;;;;;;;;;5061941;28;20124;-56
2024/01/09 04:52:18;;;;;;;5.35;2.35;;;;;;;;;;5055721;28;20130;-58
2024/01/09 04:54:44;;;;;;;2.53;1.33;;;;;;;;;;5051414;28;20119;-59
2024/01/09 04:57:10;;;;;;;5.43;2.17;;;;;;;;;;5052350;28;20037;-61
2024/01/09 04:59:36;;;;;;;2.92;1.33;;;;;;;;;;5052966;28;20043;-58
2024/01/09 05:02:02;;;;;;;4.85;0.80;;;;;;;;;;5053440;28;20533;-53
2024/01/09 05:04:31;;;;;;;1.92;0.68;;;;;;;;;;5061878;28;20288;-58
2024/01/09 05:06:57;;;;;;;1.25;0.65;;;;;;;;;;5056560;28;20344;-59
2024/01/09 05:09:24;;;;;;;2.00;0.68;;;;;;;;;;5051806;28;20032;-60
2024/01/09 05:11:50;;;;;;;0.98;0.50;;;;;;;;;;5051781;28;20052;-58
2024/01/09 05:14:16;;;;;;;1.55;1.00;;;;;;;;;;5052319;28;20109;-56
2024/01/09 05:16:42;;;;;;;3.25;1.60;;;;;;;;;;5052725;28;20058;-59
2024/01/09 05:19:08;;;;;;;0.65;0.32;;;;;;;;;;5048356;28;20456;-58
2024/01/09 05:21:34;;;;;;;2.60;1.55;;;;;;;;;;5052975;28;20037;-59
2024/01/09 05:24:00;;;;;;;2.25;1.35;;;;;;;;;;5051401;28;20136;-54
2024/01/09 05:26:26;;;;;;;1.75;0.75;;;;;;;;;;5049294;28;20044;-58
2024/01/09 05:28:52;;;;;;;2.78;0.75;;;;;;;;;;5049219;28;20033;-55
2024/01/09 05:31:18;;;;;;;0.50;0.32;;;;;;;;;;5046383;28;20459;-58
2024/01/09 05:33:44;;;;;;;2.00;0.95;;;;;;;;;;5050692;28;20222;-56
2024/01/09 05:36:10;;;;;;;5.15;0.95;;;;;;;;;;5048153;28;20036;-58
2024/01/09 05:38:36;;;;;;;0.00;0.00;;;;;;;;;;5050830;28;20560;-55
2024/01/09 05:41:02;;;;;;;4.40;1.48;;;;;;;;;;5048198;28;20044;-57
2024/01/09 05:43:28;;;;;;;4.72;1.88;;;;;;;;;;5045576;28;20036;-59
2024/01/09 05:45:54;;;;;;;4.90;2.55;;;;;;;;;;5050510;28;20039;-58
2024/01/09 05:48:20;;;;;;;1.23;0.77;;;;;;;;;;5051460;28;20044;-56
2024/01/09 05:50:46;;;;;;;0.22;0.22;;;;;;;;;;5050142;28;20113;-57
2024/01/09 05:53:12;;;;;;;6.53;1.98;;;;;;;;;;5049838;28;20768;-59
2024/01/09 05:55:38;;;;;;;2.17;1.45;;;;;;;;;;5049273;28;20044;-59
2024/01/09 05:58:04;;;;;;;2.15;1.33;;;;;;;;;;5052000;28;20442;-59
2024/01/09 06:00:30;;;;;;;1.30;0.85;;;;;;;;;;5047927;28;20365;-59
2024/01/09 06:02:56;;;;;;;0.00;0.00;;;;;;;;;;5051532;28;20044;-55
2024/01/09 06:05:22;;;;;;;1.13;0.63;;;;;;;;;;5049594;28;20153;-65
2024/01/09 06:07:48;;;;;;;3.28;0.88;;;;;;;;;;5059386;28;20036;-60
2024/01/09 06:10:14;;;;;;;3.17;1.77;;;;;;;;;;5049987;28;20249;-58
2024/01/09 06:12:40;;;;;;;0.98;0.35;;;;;;;;;;5053266;28;20032;-57
2024/01/09 06:15:06;;;;;;;6.72;2.95;;;;;;;;;;5047970;28;20386;-53
2024/01/09 06:17:32;;;;;;;2.10;1.17;;;;;;;;;;5050555;28;20056;-54
2024/01/09 06:20:00;;;;;;;1.23;1.10;;;;;;;;;;5050923;28;20509;-55
2024/01/09 06:22:26;;;;;;;1.95;0.88;;;;;;;;;;5050025;28;20413;-54
2024/01/09 06:24:52;;;;;;;0.55;0.55;;;;;;;;;;5049075;28;20064;-55
2024/01/09 06:27:18;;;;;;;3.08;1.50;;;;;;;;;;5048155;28;20572;-54
2024/01/09 06:29:44;;;;;;;2.45;1.65;;;;;;;;;;5053096;28;20391;-53
2024/01/09 06:32:10;;;;;;;6.20;1.52;;;;;;;;;;5048545;28;20032;-54
2024/01/09 06:34:36;;;;;;;7.55;2.88;;;;;;;;;;5050011;28;20119;-51
2024/01/09 06:37:03;;;;;;;0.32;0.22;;;;;;;;;;5051147;28;20070;-54
2024/01/09 06:39:29;;;;;;;2.55;1.42;;;;;;;;;;5049201;28;20037;-53
2024/01/09 06:41:55;;;;;;;0.52;0.32;;;;;;;;;;5030901;28;20071;-53
2024/01/09 06:44:21;;;;;;;0.95;0.70;;;;;;;;;;5048622;28;20114;-52
2024/01/09 06:46:46;;;;;;;1.45;0.90;;;;;;;;;;5053219;28;20170;-55
2024/01/09 06:49:12;;;;;;;1.08;0.80;;;;;;;;;;5049568;28;20440;-58
2024/01/09 06:51:39;;;;;;;0.22;0.13;;;;;;;;;;5048503;28;20643;-53
2024/01/09 06:54:05;;;;;;;1.27;1.02;;;;;;;;;;5045898;28;20090;-57
2024/01/09 06:56:30;;;;;;;4.18;1.67;;;;;;;;;;5049346;28;20082;-54
2024/01/09 06:58:56;;;;;;;4.75;2.15;;;;;;;;;;5053934;28;20048;-53
2024/01/09 07:01:22;;;;;;;5.03;2.03;;;;;;;;;;5045701;28;20104;-55
2024/01/09 07:03:48;;;;;;;2.05;1.30;;;;;;;;;;5049597;28;20040;-51
2024/01/09 07:06:15;;;;;;;3.45;1.85;;;;;;;;;;5048322;28;20037;-56
2024/01/09 07:08:41;;;;;;;11.80;3.40;;;;;;;;;;5056303;28;20044;-62
2024/01/09 07:11:07;;;;;;;7.30;2.35;;;;;;;;;;5058623;28;20032;-59
2024/01/09 07:13:33;;;;;;;6.55;2.65;;;;;;;;;;5051229;28;20577;-55
2024/01/09 07:15:59;;;;;;;3.65;2.13;;;;;;;;;;5050258;28;20044;-56
2024/01/09 07:18:27;;;;;;;9.10;3.63;;;;;;;;;;5045947;28;20424;-55
2024/01/09 07:20:53;;;;;;;1.33;1.23;;;;;;;;;;5050606;28;20037;-63
2024/01/09 07:23:19;;;;;;;0.05;0.05;;;;;;;;;;5038794;28;20287;-54
2024/01/09 07:25:45;;;;;;;3.10;0.98;;;;;;;;;;5049015;28;20048;-55
2024/01/09 07:28:11;;;;;;;1.63;0.73;;;;;;;;;;5048366;28;20217;-53
2024/01/09 07:30:37;;;;;;;1.20;1.10;;;;;;;;;;5049294;28;20044;-57
2024/01/09 07:33:03;;;;;;;4.10;2.47;;;;;;;;;;5049429;28;20045;-57
2024/01/09 07:35:34;;;;;;;7.38;3.63;;;;;;;;;;5042988;28;20094;-55
2024/01/09 07:38:00;;;;;;;0.00;0.00;;;;;;;;;;5048581;28;20045;-60
2024/01/09 07:40:26;;;;;;;0.75;0.75;;;;;;;;;;5053161;28;20033;-57
2024/01/09 07:42:52;;;;;;;1.20;0.47;;;;;;;;;;5054357;28;20056;-60
2024/01/09 07:45:17;;;;;;;1.38;0.60;;;;;;;;;;5058256;28;20101;-59
2024/01/09 07:47:43;;;;;;;1.73;1.33;;;;;;;;;;5057580;28;20110;-59
2024/01/09 07:50:09;;;;;;;7.60;2.80;;;;;;;;;;5054412;28;20041;-59
2024/01/09 07:52:35;;;;;;;0.60;0.40;;;;;;;;;;5056319;28;20233;-59
2024/01/09 07:55:02;;;;;;;7.45;2.58;;;;;;;;;;5058880;28;20124;-57
2024/01/09 07:57:29;;;;;;;2.53;1.80;;;;;;;;;;5059929;28;20150;-59
2024/01/09 07:59:55;;;;;;;9.45;2.53;;;;;;;;;;5057948;28;20361;-56
2024/01/09 08:02:21;;;;;;;5.15;2.78;;;;;;;;;;5058306;28;20114;-57
2024/01/09 08:04:47;;;;;;;1.42;0.85;;;;;;;;;;5059240;28;20170;-57
2024/01/09 08:07:13;;;;;;;3.30;2.33;;;;;;;;;;5060787;28;20032;-57
2024/01/09 08:09:39;;;;;;;3.90;1.92;;;;;;;;;;5062920;28;20066;-58
2024/01/09 08:12:05;;;;;;;4.25;2.58;;;;;;;;;;5061336;28;20036;-59
2024/01/09 08:14:31;;;;;;;9.55;3.17;;;;;;;;;;5063832;28;20035;-57
2024/01/09 08:16:58;;;;;;;7.35;2.90;;;;;;;;;;5061795;28;20716;-59
2024/01/09 08:19:24;;;;;;;5.03;2.42;;;;;;;;;;5066431;28;20024;-57
2024/01/09 08:21:50;;;;;;;9.00;2.20;;;;;;;;;;5066191;28;20487;-57
2024/01/09 08:24:18;;;;;;;4.50;1.98;;;;;;;;;;5069574;28;20440;-57
2024/01/09 08:26:48;;;;;;;2.42;1.48;;;;;;;;;;5060420;28;20106;-59
2024/01/09 08:29:15;;;;;;;7.00;3.47;;;;;;;;;;5060893;28;20400;-59
2024/01/09 08:31:45;;;;;;;3.67;1.98;;;;;;;;;;5063115;28;20025;-59
2024/01/09 08:34:11;;;;;;;0.43;0.40;;;;;;;;;;5062261;28;20496;-52
2024/01/09 08:36:37;;;;;;;6.32;2.97;;;;;;;;;;5064462;28;20060;-54
2024/01/09 08:39:03;;;;;;;7.97;2.50;;;;;;;;;;5062055;28;20063;-53
2024/01/09 08:41:28;;;;;;;3.40;1.23;;;;;;;;;;5061524;28;20067;-55
2024/01/09 08:43:54;;;;;;;9.80;2.70;;;;;;;;;;5062189;28;20032;-54
2024/01/09 08:46:20;;;;;;;5.32;2.92;;;;;;;;;;5061387;28;20127;-53
2024/01/09 08:48:47;;;;;;;3.03;1.95;;;;;;;;;;5061120;28;20047;-53
2024/01/09 08:51:13;;;;;;;5.63;2.20;;;;;;;;;;5065084;28;20028;-52
2024/01/09 08:53:39;;;;;;;4.07;2.90;;;;;;;;;;5063567;28;20603;-53
2024/01/09 08:56:05;;;;;;;2.85;1.50;;;;;;;;;;5068530;28;20689;-54
2024/01/09 08:58:31;;;;;;;4.40;2.75;;;;;;;;;;5063750;28;20040;-55
2024/01/09 09:00:57;;;;;;;3.22;1.48;;;;;;;;;;5062107;28;20090;-54
2024/01/09 09:03:23;;;;;;;5.60;2.70;;;;;;;;;;5059128;28;20048;-56
2024/01/09 09:05:49;;;;;;;4.40;1.80;;;;;;;;;;5060070;28;20035;-55
2024/01/09 09:08:15;;;;;;;5.22;1.83;;;;;;;;;;5063722;28;20431;-58
2024/01/09 09:10:42;;;;;;;3.35;2.00;;;;;;;;;;5063162;28;20123;-55
2024/01/09 09:13:09;;;;;;;6.35;2.72;;;;;;;;;;5059018;28;20036;-57
2024/01/09 09:15:35;;;;;;;7.05;3.50;;;;;;;;;;5061896;28;20071;-58
2024/01/09 09:18:01;;;;;;;1.45;0.82;;;;;;;;;;5059599;28;20170;-58
2024/01/09 09:20:27;;;;;;;3.30;1.30;;;;;;;;;;5062795;28;20029;-57
2024/01/09 09:22:53;;;;;;;4.90;2.05;;;;;;;;;;5063417;28;20148;-58
2024/01/09 09:25:19;;;;;;;5.25;2.13;;;;;;;;;;5061424;28;20120;-55
2024/01/09 09:27:45;;;;;;;3.70;2.03;;;;;;;;;;5062283;28;20067;-55
2024/01/09 09:30:12;;;;;;;5.13;2.28;;;;;;;;;;5068721;28;20428;-56
2024/01/09 09:32:38;;;;;;;5.63;2.95;;;;;;;;;;5060475;28;20093;-55
2024/01/09 09:35:04;;;;;;;7.13;2.17;;;;;;;;;;5040495;28;20050;-54
2024/01/09 09:37:30;;;;;;;4.15;2.25;;;;;;;;;;5061635;28;20281;-55
2024/01/09 09:39:56;;;;;;;3.38;1.55;;;;;;;;;;5060818;28;20075;-54
2024/01/09 09:42:22;;;;;;;3.17;1.55;;;;;;;;;;5064529;28;20123;-61
2024/01/09 09:44:52;;;;;;;3.40;1.85;;;;;;;;;;5061653;28;20357;-59
2024/01/09 09:47:18;;;;;;;4.53;1.88;;;;;;;;;;5060775;28;20036;-61
2024/01/09 09:49:45;;;;;;;3.60;1.40;;;;;;;;;;5060824;28;20516;-59
2024/01/09 09:52:12;;;;;;;0.52;0.52;;;;;;;;;;5059037;28;20432;-56
2024/01/09 09:54:39;;;;;;;8.55;3.50;;;;;;;;;;5063121;28;20161;-56
2024/01/09 09:57:05;;;;;;;7.93;3.67;;;;;;;;;;5060408;28;20165;-59
2024/01/09 09:59:32;;;;;;;18.65;1.95;;;;;;;;;;5062774;28;20035;-58
2024/01/09 10:01:59;;;;;;;4.18;2.05;;;;;;;;;;5062478;28;20035;-61
2024/01/09 10:04:30;;;;;;;2.60;1.05;;;;;;;;;;5062691;28;20103;-60
2024/01/09 10:06:56;;;;;;;9.88;3.75;;;;;;;;;;5060973;28;20021;-61
2024/01/09 10:09:23;;;;;;;6.93;2.65;;;;;;;;;;5058503;28;20372;-61
2024/01/09 10:11:50;;;;;;;1.90;1.20;;;;;;;;;;5060395;28;20436;-62
2024/01/09 10:14:16;;;;;;;3.20;1.50;;;;;;;;;;5059593;28;20435;-60
2024/01/09 10:16:51;;;;;;;2.85;1.45;;;;;;;;;;5062080;28;20063;-60
2024/01/09 10:19:17;;;;;;;7.30;1.65;;;;;;;;;;5056026;28;20119;-59
2024/01/09 10:21:43;;;;;;;4.28;1.85;;;;;;;;;;5062195;28;20035;-62
2024/01/09 10:24:09;;;;;;;0.55;0.55;;;;;;;;;;5061351;28;20020;-62
2024/01/09 10:26:35;;;;;;;1.98;0.82;;;;;;;;;;5060112;28;20063;-61
2024/01/09 10:29:03;;;;;;;5.75;2.63;;;;;;;;;;5058915;28;20060;-57
2024/01/09 10:31:30;;;;;;;6.78;3.13;;;;;;;;;;5059592;28;20037;-60
2024/01/09 10:33:56;;;;;;;4.57;2.58;;;;;;;;;;5060975;28;20025;-61
2024/01/09 10:36:22;;;;;;;8.48;3.35;;;;;;;;;;5059164;28;20471;-61
2024/01/09 10:38:49;;;;;;;5.25;2.60;;;;;;;;;;5059199;28;20404;-61
2024/01/09 10:41:16;;;;;;;0.60;0.60;;;;;;;;;;5059610;28;20036;-61
2024/01/09 10:43:43;;;;;;;4.38;2.53;;;;;;;;;;5059285;28;20624;-59
2024/01/09 10:46:08;;;;;;;5.60;2.00;;;;;;;;;;5058204;28;20040;-60
2024/01/09 10:48:35;;;;;;;1.73;0.95;;;;;;;;;;5060351;28;20522;-59
2024/01/09 10:51:02;;;;;;;5.55;2.90;;;;;;;;;;5058193;28;20427;-58
2024/01/09 10:53:29;;;;;;;8.77;3.15;;;;;;;;;;5057620;28;20046;-60
2024/01/09 10:55:55;;;;;;;4.82;2.40;;;;;;;;;;5059411;28;20040;-61
2024/01/09 10:58:21;;;;;;;3.60;1.75;;;;;;;;;;5059903;28;20103;-60
2024/01/09 11:00:47;;;;;;;2.05;1.23;;;;;;;;;;5057254;28;20036;-60
2024/01/09 11:03:14;;;;;;;5.05;2.80;;;;;;;;;;5058434;28;20515;-62
2024/01/09 11:05:41;;;;;;;0.38;0.30;;;;;;;;;;5065448;28;20038;-59
2024/01/09 11:08:08;;;;;;;2.78;1.75;;;;;;;;;;5058204;28;20063;-59
2024/01/09 11:10:35;;;;;;;6.80;3.42;;;;;;;;;;5061757;28;20044;-62
2024/01/09 11:13:01;;;;;;;8.88;3.03;;;;;;;;;;5061322;28;20307;-61
2024/01/09 11:15:29;;;;;;;5.57;2.45;;;;;;;;;;5061277;28;20067;-59
2024/01/09 11:18:01;;;;;;;7.00;3.00;;;;;;;;;;5061368;28;20048;-60
2024/01/09 11:20:28;;;;;;;3.28;2.20;;;;;;;;;;5055306;28;20036;-60
2024/01/09 11:22:54;;;;;;;6.28;1.95;;;;;;;;;;5043489;28;20135;-61
2024/01/09 11:25:29;;;;;;;2.10;0.85;;;;;;;;;;5058004;28;20250;-61
2024/01/09 11:27:55;;;;;;;6.20;2.13;;;;;;;;;;5058597;28;20028;-61
2024/01/09 11:30:28;;;;;;;1.30;0.77;;;;;;;;;;5064282;28;20041;-61
2024/01/09 11:32:56;;;;;;;2.92;0.80;;;;;;;;;;5061105;28;20044;-59
2024/01/09 11:35:22;;;;;;;4.78;1.83;;;;;;;;;;5060062;28;20029;-62
2024/01/09 11:37:49;;;;;;;5.82;2.30;;;;;;;;;;5060605;28;20126;-61
2024/01/09 11:40:16;;;;;;;3.20;0.95;;;;;;;;;;5060121;28;20052;-62
2024/01/09 11:42:46;;;;;;;0.25;0.22;;;;;;;;;;5064816;28;20077;-62
2024/01/09 11:45:12;;;;;;;3.60;1.52;;;;;;;;;;5061321;28;20565;-59
2024/01/09 11:47:39;;;;;;;6.15;2.70;;;;;;;;;;5064697;28;20036;-59
2024/01/09 11:50:07;;;;;;;2.33;1.35;;;;;;;;;;5070175;28;20621;-61
2024/01/09 11:52:33;;;;;;;5.80;2.83;;;;;;;;;;5064411;28;20043;-61
2024/01/09 11:54:59;;;;;;;4.00;1.98;;;;;;;;;;5062767;28;20032;-62
2024/01/09 11:57:25;;;;;;;5.30;2.47;;;;;;;;;;5062124;28;20032;-62
2024/01/09 11:59:51;;;;;;;4.95;1.13;;;;;;;;;;5063989;28;20513;-60
2024/01/09 12:02:20;;;;;;;4.78;2.35;;;;;;;;;;5068868;28;20029;-61
2024/01/09 12:04:46;;;;;;;1.27;0.98;;;;;;;;;;5065785;28;20412;-61
2024/01/09 12:07:12;;;;;;;4.50;1.73;;;;;;;;;;5066945;28;20032;-61
2024/01/09 12:09:38;;;;;;;9.23;3.78;;;;;;;;;;5063596;28;20117;-61
2024/01/09 12:12:08;;;;;;;5.05;1.83;;;;;;;;;;5061883;28;20469;-60
2024/01/09 12:14:34;;;;;;;2.38;1.80;;;;;;;;;;5062579;28;20025;-60
2024/01/09 12:17:00;;;;;;;4.47;2.47;;;;;;;;;;5063697;28;20032;-61
2024/01/09 12:19:26;;;;;;;4.63;2.33;;;;;;;;;;5063233;28;20028;-61
2024/01/09 12:21:52;;;;;;;7.35;2.20;;;;;;;;;;5064265;28;20353;-61
2024/01/09 12:24:18;;;;;;;3.65;2.05;;;;;;;;;;5061838;28;20039;-60
2024/01/09 12:26:44;;;;;;;0.22;0.22;;;;;;;;;;5063700;28;20059;-61
2024/01/09 12:29:11;;;;;;;1.75;1.00;;;;;;;;;;5055383;28;20029;-58
2024/01/09 12:31:37;;;;;;;3.80;1.73;;;;;;;;;;5060194;28;20175;-61
2024/01/09 12:34:03;;;;;;;0.03;0.03;;;;;;;;;;5061088;28;20032;-61
2024/01/09 12:36:31;;;;;;;1.75;0.55;;;;;;;;;;5061972;28;20038;-62
2024/01/09 12:38:57;;;;;;;1.92;0.68;;;;;;;;;;5060409;28;20601;-61
2024/01/09 12:41:23;;;;;;;4.18;2.88;;;;;;;;;;5061704;28;20504;-59
2024/01/09 12:43:51;;;;;;;4.50;2.22;;;;;;;;;;5061888;28;20040;-62
2024/01/09 12:46:17;;;;;;;0.90;0.90;;;;;;;;;;5060589;28;20453;-59
2024/01/09 12:48:43;;;;;;;0.65;0.15;;;;;;;;;;5064823;28;20047;-62
2024/01/09 12:51:09;;;;;;;0.95;0.25;;;;;;;;;;5062365;28;20040;-62
2024/01/09 12:53:35;;;;;;;6.22;2.38;;;;;;;;;;5060446;28;20107;-62
2024/01/09 12:56:08;;;;;;;2.65;1.52;;;;;;;;;;5064031;28;20138;-59
2024/01/09 12:58:35;;;;;;;;;;;;;;;;;;5061482;28;20119;-61
2024/01/09 13:01:01;;;;;;;3.10;1.83;;;;;;;;;;5063622;28;19923;-62
2024/01/09 13:03:27;;;;;;;2.00;1.38;;;;;;;;;;5066455;28;20033;-60
2024/01/09 13:05:54;;;;;;;1.30;1.20;;;;;;;;;;5062043;28;20111;-59
2024/01/09 13:08:20;;;;;;;1.40;0.55;;;;;;;;;;5059948;28;20036;-61
2024/01/09 13:10:46;;;;;;;0.35;0.35;;;;;;;;;;5063022;28;20033;-61
2024/01/09 13:13:12;;;;;;;0.90;0.80;;;;;;;;;;5062368;28;20029;-60
2024/01/09 13:15:39;;;;;;;2.40;0.90;;;;;;;;;;5061883;28;20029;-62
2024/01/09 13:18:05;;;;;;;0.80;0.73;;;;;;;;;;5062215;28;20186;-61
2024/01/09 13:20:31;;;;;;;2.35;1.40;;;;;;;;;;5063963;28;20241;-61
2024/01/09 13:22:57;;;;;;;4.85;3.35;;;;;;;;;;5063327;28;20147;-57
2024/01/09 13:25:23;;;;;;;1.00;0.20;;;;;;;;;;5060208;28;20037;-58
2024/01/09 13:27:49;;;;;;;1.65;0.80;;;;;;;;;;5056621;28;20044;-57
2024/01/09 13:30:16;;;;;;;1.25;0.82;;;;;;;;;;5068430;28;20029;-57
2024/01/09 13:32:42;;;;;;;2.03;1.23;;;;;;;;;;5064223;28;20047;-56
2024/01/09 13:35:09;;;;;;;3.65;1.63;;;;;;;;;;5064728;28;20109;-56
2024/01/09 13:37:35;;;;;;;3.55;1.77;;;;;;;;;;5059292;28;20048;-57
2024/01/09 13:40:02;;;;;;;1.20;0.57;;;;;;;;;;5060747;28;20028;-56
2024/01/09 13:42:28;;;;;;;5.47;1.35;;;;;;;;;;5069817;28;20028;-56
2024/01/09 13:44:55;;;;;;;2.30;0.47;;;;;;;;;;5063165;28;20116;-57
2024/01/09 13:47:23;;;;;;;2.92;1.55;;;;;;;;;;5060763;28;20047;-56
2024/01/09 13:49:49;;;;;;;1.30;1.02;;;;;;;;;;5064069;28;20469;-57
2024/01/09 13:52:15;;;;;;;1.30;0.85;;;;;;;;;;5044025;28;20067;-56
2024/01/09 13:54:41;;;;;;;4.25;2.17;;;;;;;;;;5062689;28;20033;-57
2024/01/09 13:57:10;;;;;;;4.65;2.30;;;;;;;;;;5060078;28;20036;-57
2024/01/09 13:59:36;;;;;;;2.50;1.40;;;;;;;;;;5061559;28;20029;-56
2024/01/09 14:02:02;;;;;;;0.43;0.43;;;;;;;;;;5061815;28;20403;-56
2024/01/09 14:04:28;;;;;;;2.15;0.80;;;;;;;;;;5062599;28;20041;-58
2024/01/09 14:06:54;;;;;;;2.40;1.35;;;;;;;;;;5065373;28;20036;-57
2024/01/09 14:09:20;;;;;;;0.98;0.80;;;;;;;;;;5068296;28;20043;-57
2024/01/09 14:11:47;;;;;;;3.35;1.33;;;;;;;;;;5065382;28;20037;-57
2024/01/09 14:14:13;;;;;;;5.72;2.92;;;;;;;;;;5062209;28;20077;-58
2024/01/09 14:16:39;;;;;;;2.72;1.05;;;;;;;;;;5063982;28;20128;-57
2024/01/09 14:19:07;;;;;;;1.38;0.93;;;;;;;;;;5058929;28;20040;-57
2024/01/09 14:21:33;;;;;;;4.30;1.83;;;;;;;;;;5058832;28;20038;-57
2024/01/09 14:23:59;;;;;;;1.40;0.85;;;;;;;;;;5060777;28;20356;-57
2024/01/09 14:26:26;;;;;;;3.22;0.93;;;;;;;;;;5061305;28;20036;-57
2024/01/09 14:28:52;;;;;;;2.88;1.20;;;;;;;;;;5061952;28;20038;-56
2024/01/09 14:31:18;;;;;;;3.25;1.50;;;;;;;;;;5042307;28;20025;-57
2024/01/09 14:33:45;;;;;;;4.38;2.50;;;;;;;;;;5064336;28;20033;-57
2024/01/09 14:36:11;;;;;;;0.65;0.55;;;;;;;;;;5057108;28;20465;-56
2024/01/09 14:38:37;;;;;;;0.40;0.20;;;;;;;;;;5062812;28;20319;-57